New Orleans, Louisiana
Current Conditions -  °F | °C
As of 11:55 AM on Monday 24 Nov 2014 (Local Time) from KVSH Reporting Station
Clear Clear  
Wind Chill: 70°   Ceiling: Unl
Heat Index: 70°   Visibility: 10mi
Dew Point: 52°   Wind: 8mph
Humidity: 53%   Direction: 350°N
Pressure: 29.89"   Gusts: NA
Location:  29.95°N, 90.08°W
Report Text: KVSH 241755Z AUTO 35007KT 10SM CLR 21/11 A2989 RMK AO1 10220 20190 52003
Loading
Personal Weather Stations






























Interactive Weather Map New forecast layout! Learn more

10-Day Weather Forecast

Advertisements
Track Severe Weather on mobile